Time;durP1;ratioP1;P1;durP2;ratioP2;P2;SDS_P1;SDS_P2;PMS_P1;PMS_P2;Temp;Humidity;BMP_temperature;BMP_pressure;BME280_temperature;BME280_humidity;BME280_pressure;Samples;Min_cycle;Max_cycle;Signal;HPM_P1;HPM_P2
2024/01/29 00:02:17;;;;;;;9.90;6.20;;;;;;;4.61;72.04;102513.22;5066668;28;20300;-53
2024/01/29 00:04:45;;;;;;;10.10;6.50;;;;;;;4.61;72.23;102508.09;5070668;28;20210;-54
2024/01/29 00:07:13;;;;;;;10.37;6.63;;;;;;;4.59;71.83;102507.13;5062956;28;20254;-55
2024/01/29 00:09:45;;;;;;;8.40;6.43;;;;;;;4.56;71.66;102518.06;5070164;28;20567;-53
2024/01/29 00:12:13;;;;;;;9.33;6.13;;;;;;;4.53;71.78;102519.59;5069560;28;20206;-51
2024/01/29 00:14:41;;;;;;;9.00;6.47;;;;;;;4.52;72.16;102521.25;5071143;28;20266;-55
2024/01/29 00:17:09;;;;;;;10.43;6.57;;;;;;;4.51;72.11;102518.63;5070486;28;20244;-55
2024/01/29 00:19:37;;;;;;;10.50;6.80;;;;;;;4.52;72.19;102520.38;5068349;28;20201;-56
2024/01/29 00:22:05;;;;;;;10.63;6.77;;;;;;;4.52;72.40;102531.47;5070797;28;20216;-52
2024/01/29 00:24:33;;;;;;;9.97;6.90;;;;;;;4.53;72.42;102533.25;5063280;28;20294;-53
2024/01/29 00:27:03;;;;;;;10.53;7.00;;;;;;;4.52;72.37;102531.47;5068530;28;20672;-55
2024/01/29 00:29:30;;;;;;;9.43;6.87;;;;;;;4.52;72.23;102530.59;5069541;28;20235;-58
2024/01/29 00:31:59;;;;;;;10.07;6.63;;;;;;;4.50;72.71;102517.75;5068352;28;20201;-55
2024/01/29 00:34:27;;;;;;;10.40;7.07;;;;;;;4.45;72.43;102513.19;5058483;28;20235;-54
2024/01/29 00:36:55;;;;;;;12.23;6.93;;;;;;;4.42;72.39;102513.91;5067431;28;20656;-54
2024/01/29 00:39:23;;;;;;;12.60;7.73;;;;;;;4.41;72.59;102513.81;5065895;28;20358;-52
2024/01/29 00:41:51;;;;;;;11.17;7.47;;;;;;;4.39;72.70;102512.88;5061864;28;20275;-53
2024/01/29 00:44:20;;;;;;;14.70;7.60;;;;;;;4.34;72.65;102515.16;5071006;28;20656;-52
2024/01/29 00:46:48;;;;;;;12.03;7.33;;;;;;;4.33;72.67;102515.97;5069296;28;20610;-55
2024/01/29 00:49:16;;;;;;;11.73;8.10;;;;;;;4.30;73.10;102514.13;5068778;28;20607;-52
2024/01/29 00:51:44;;;;;;;10.60;7.47;;;;;;;4.26;72.93;102514.75;5071170;28;20208;-51
2024/01/29 00:54:13;;;;;;;10.90;7.27;;;;;;;4.23;73.30;102509.47;5069440;28;20201;-54
2024/01/29 00:56:40;;;;;;;11.73;7.47;;;;;;;4.21;72.92;102511.09;5070647;28;20721;-51
2024/01/29 00:59:08;;;;;;;12.17;7.97;;;;;;;4.18;73.02;102508.38;5057123;28;20229;-54
2024/01/29 01:01:37;;;;;;;11.90;8.37;;;;;;;4.18;72.65;102503.25;5069227;28;20219;-59
2024/01/29 01:04:07;;;;;;;10.13;7.80;;;;;;;4.15;72.66;102494.56;5052390;28;20202;-55
2024/01/29 01:06:35;;;;;;;13.97;8.50;;;;;;;4.16;72.98;102488.66;5070682;28;21001;-53
2024/01/29 01:09:03;;;;;;;11.00;7.53;;;;;;;4.16;72.34;102494.66;5069697;28;20247;-55
2024/01/29 01:11:31;;;;;;;11.03;7.67;;;;;;;4.15;72.52;102489.47;5077032;28;20729;-55
2024/01/29 01:13:59;;;;;;;10.10;7.83;;;;;;;4.08;72.02;102480.59;5074319;28;20293;-54
2024/01/29 01:16:27;;;;;;;11.67;7.27;;;;;;;4.05;71.88;102483.88;5067658;28;20205;-57
2024/01/29 01:18:57;;;;;;;10.70;7.10;;;;;;;3.98;72.04;102469.03;5060936;28;20201;-53
2024/01/29 01:21:25;;;;;;;11.03;7.40;;;;;;;3.97;71.51;102477.47;5074956;28;20201;-54
2024/01/29 01:23:54;;;;;;;10.00;7.03;;;;;;;3.96;71.82;102477.38;5071573;28;20229;-55
2024/01/29 01:26:21;;;;;;;12.90;7.70;;;;;;;3.95;71.95;102473.09;5072205;28;20205;-55
2024/01/29 01:28:49;;;;;;;12.20;7.73;;;;;;;3.96;71.65;102472.28;5070973;28;20205;-56
2024/01/29 01:31:17;;;;;;;11.80;7.67;;;;;;;3.95;71.53;102466.31;5072139;28;20588;-53
2024/01/29 01:33:45;;;;;;;12.43;7.27;;;;;;;3.94;71.93;102471.31;5072033;28;20240;-53
2024/01/29 01:36:15;;;;;;;14.87;7.40;;;;;;;3.92;71.99;102471.25;5068855;28;20202;-53
2024/01/29 01:38:43;;;;;;;11.73;7.67;;;;;;;3.91;71.66;102471.16;5072937;28;20311;-51
2024/01/29 01:41:11;;;;;;;9.87;7.53;;;;;;;3.92;72.12;102472.91;5072251;28;20282;-52
2024/01/29 01:43:39;;;;;;;13.47;7.30;;;;;;;3.92;71.90;102461.03;5071982;28;20699;-51
2024/01/29 01:46:21;;;;;;;10.17;7.43;;;;;;;3.87;71.68;102462.47;5073562;28;20261;-52
2024/01/29 01:48:51;;;;;;;11.20;7.23;;;;;;;3.85;72.28;102469.16;5072604;28;20201;-52
2024/01/29 01:51:22;;;;;;;10.87;7.13;;;;;;;3.82;72.01;102472.41;5073206;28;20307;-54
2024/01/29 01:53:53;;;;;;;11.17;7.60;;;;;;;3.83;72.05;102470.75;5070388;28;20197;-54
2024/01/29 01:56:22;;;;;;;10.63;6.90;;;;;;;3.84;72.04;102470.81;5069133;28;20209;-56
2024/01/29 01:58:50;;;;;;;9.97;7.07;;;;;;;3.87;71.92;102471.00;5073245;28;20211;-53
2024/01/29 02:01:19;;;;;;;11.57;7.47;;;;;;;3.86;72.43;102476.88;5070280;28;20236;-53
2024/01/29 02:03:47;;;;;;;11.30;7.33;;;;;;;3.87;72.24;102473.56;5064450;28;20229;-51
2024/01/29 02:06:15;;;;;;;11.53;7.70;;;;;;;3.90;72.09;102470.25;5072922;28;20205;-55
2024/01/29 02:08:44;;;;;;;11.77;8.00;;;;;;;3.91;72.13;102472.03;5065930;28;20201;-53
2024/01/29 02:11:12;;;;;;;9.77;7.50;;;;;;;3.91;72.54;102479.69;5070360;28;20663;-52
2024/01/29 02:13:40;;;;;;;16.00;7.70;;;;;;;3.91;72.11;102474.59;5066800;28;20638;-54
2024/01/29 02:16:08;;;;;;;11.77;7.77;;;;;;;3.88;71.96;102479.53;5072932;28;20212;-55
2024/01/29 02:18:36;;;;;;;11.70;7.27;;;;;;;3.87;71.94;102477.78;5073180;28;20652;-53
2024/01/29 02:21:04;;;;;;;15.80;8.03;;;;;;;3.84;71.71;102481.03;5065034;28;20205;-54
2024/01/29 02:23:34;;;;;;;14.17;7.97;;;;;;;3.80;72.07;102475.69;5072569;28;20676;-55
2024/01/29 02:26:02;;;;;;;13.03;8.30;;;;;;;3.77;72.17;102471.28;5054057;28;20216;-55
2024/01/29 02:28:30;;;;;;;10.50;7.73;;;;;;;3.75;72.57;102470.31;5070648;28;20259;-53
2024/01/29 02:30:58;;;;;;;12.10;7.73;;;;;;;3.78;72.50;102465.38;5072766;28;20626;-54
2024/01/29 02:33:26;;;;;;;11.17;8.03;;;;;;;3.79;72.54;102474.81;5073039;28;20197;-58
2024/01/29 02:35:54;;;;;;;12.30;8.20;;;;;;;3.82;72.92;102477.50;5073094;28;20197;-54
2024/01/29 02:38:23;;;;;;;12.90;8.40;;;;;;;3.83;72.85;102475.84;5067856;28;20675;-54
2024/01/29 02:40:52;;;;;;;11.70;7.93;;;;;;;3.86;72.78;102474.31;5069480;28;20213;-55
2024/01/29 02:43:21;;;;;;;12.27;7.90;;;;;;;3.90;72.92;102479.59;5072230;28;20672;-53
2024/01/29 02:45:50;;;;;;;11.90;7.63;;;;;;;3.91;72.54;102484.78;5068236;28;20210;-54
2024/01/29 02:48:18;;;;;;;14.83;7.70;;;;;;;3.93;72.91;102488.28;5072930;28;20673;-54
2024/01/29 02:50:46;;;;;;;13.70;8.23;;;;;;;3.95;73.16;102493.50;5072020;28;20229;-53
2024/01/29 02:53:14;;;;;;;10.40;7.67;;;;;;;3.94;72.53;102489.16;5072296;28;20247;-54
2024/01/29 02:55:42;;;;;;;12.57;8.10;;;;;;;3.97;72.88;102494.44;5070021;28;20241;-54
2024/01/29 02:58:11;;;;;;;10.83;7.13;;;;;;;3.96;72.73;102501.22;5067426;28;20247;-51
2024/01/29 03:00:39;;;;;;;11.03;7.53;;;;;;;3.95;72.31;102503.69;5071691;28;20288;-57
2024/01/29 03:03:08;;;;;;;10.60;7.63;;;;;;;3.93;72.31;102503.59;5063577;28;20675;-53
2024/01/29 03:05:36;;;;;;;12.07;7.30;;;;;;;3.94;72.53;102496.81;5069209;28;20209;-54
2024/01/29 03:08:04;;;;;;;11.70;7.53;;;;;;;3.92;72.13;102494.19;5071764;28;20205;-56
2024/01/29 03:10:33;;;;;;;12.53;8.00;;;;;;;3.87;72.80;102496.50;5071878;28;20250;-51
2024/01/29 03:13:00;;;;;;;11.10;7.73;;;;;;;3.86;72.94;102497.28;5071522;28;20205;-54
2024/01/29 03:15:30;;;;;;;12.77;8.37;;;;;;;3.88;72.71;102482.94;5062606;28;20289;-54
2024/01/29 03:17:58;;;;;;;10.33;7.00;;;;;;;3.90;72.98;102474.50;5072232;28;20227;-56
2024/01/29 03:20:26;;;;;;;12.37;8.00;;;;;;;3.91;72.63;102474.59;5070615;28;20208;-54
2024/01/29 03:22:54;;;;;;;13.60;7.70;;;;;;;3.91;72.64;102477.16;5071859;28;20575;-51
2024/01/29 03:25:22;;;;;;;12.67;7.90;;;;;;;3.91;72.46;102476.28;5068270;28;20271;-53
2024/01/29 03:27:50;;;;;;;12.57;8.17;;;;;;;3.87;73.32;102465.91;5069901;28;20201;-54
2024/01/29 03:30:18;;;;;;;14.43;8.23;;;;;;;3.90;72.79;102464.28;5065545;28;20201;-56
2024/01/29 03:32:48;;;;;;;12.70;8.43;;;;;;;3.87;72.77;102457.38;5065280;28;20252;-52
2024/01/29 03:35:16;;;;;;;11.03;7.53;;;;;;;3.86;73.20;102458.16;5065575;28;20644;-51
2024/01/29 03:37:45;;;;;;;11.23;7.43;;;;;;;3.85;73.24;102448.75;5068773;28;20193;-54
2024/01/29 03:40:14;;;;;;;12.23;7.83;;;;;;;3.85;72.97;102446.19;5068799;28;20447;-55
2024/01/29 03:42:44;;;;;;;12.13;7.57;;;;;;;3.82;72.66;102444.34;5066047;28;20205;-56
2024/01/29 03:45:12;;;;;;;11.33;7.53;;;;;;;3.80;73.03;102443.41;5071204;28;20209;-55
2024/01/29 03:47:40;;;;;;;10.20;7.67;;;;;;;3.76;72.55;102440.63;5071538;28;20201;-53
2024/01/29 03:50:10;;;;;;;12.93;8.00;;;;;;;3.71;73.07;102437.78;5071071;28;20243;-56
2024/01/29 03:52:38;;;;;;;11.17;7.07;;;;;;;3.67;73.26;102424.78;5068621;28;20250;-55
2024/01/29 03:55:06;;;;;;;11.83;8.00;;;;;;;3.61;73.42;102426.22;5067050;28;20232;-56
2024/01/29 03:57:36;;;;;;;11.00;7.07;;;;;;;3.56;73.58;102432.72;5071179;28;20236;-57
2024/01/29 04:00:07;;;;;;;12.67;7.53;;;;;;;3.52;73.50;102422.28;5064229;28;20198;-56
2024/01/29 04:02:35;;;;;;;11.10;6.93;;;;;;;3.49;73.85;102420.44;5068733;28;20205;-55
2024/01/29 04:05:03;;;;;;;13.77;8.10;;;;;;;3.47;73.72;102423.72;5069315;28;20217;-57
2024/01/29 04:07:33;;;;;;;13.10;7.60;;;;;;;3.46;73.43;102419.38;5070320;28;20205;-56
2024/01/29 04:10:01;;;;;;;10.47;7.90;;;;;;;3.42;73.88;102428.53;5069223;28;20209;-56
2024/01/29 04:12:29;;;;;;;11.33;7.60;;;;;;;3.39;73.47;102421.63;5070056;28;20201;-55
2024/01/29 04:14:57;;;;;;;10.33;7.53;;;;;;;3.38;73.97;102429.16;5069524;28;20284;-56
2024/01/29 04:17:25;;;;;;;11.40;7.80;;;;;;;3.36;74.02;102418.00;5066976;28;20229;-56
2024/01/29 04:19:53;;;;;;;12.73;7.73;;;;;;;3.35;73.76;102414.59;5060609;28;20213;-57
2024/01/29 04:22:21;;;;;;;10.47;7.30;;;;;;;3.33;73.85;102416.16;5071114;28;20205;-58
2024/01/29 04:24:50;;;;;;;11.13;7.87;;;;;;;3.33;74.03;102411.06;5070749;28;20212;-57
2024/01/29 04:27:18;;;;;;;9.93;7.37;;;;;;;3.30;73.75;102418.53;5067578;28;20205;-55
2024/01/29 04:29:46;;;;;;;10.50;7.00;;;;;;;3.32;73.96;102411.88;5067763;28;20697;-58
2024/01/29 04:32:14;;;;;;;11.27;6.57;;;;;;;3.29;73.57;102405.72;5070688;28;20217;-56
2024/01/29 04:34:42;;;;;;;10.53;7.73;;;;;;;3.29;74.19;102406.59;5069367;28;20193;-56
2024/01/29 04:37:10;;;;;;;11.17;7.93;;;;;;;3.29;73.48;102403.16;5070370;28;20205;-56
2024/01/29 04:39:38;;;;;;;12.07;7.07;;;;;;;3.27;74.24;102403.06;5070391;28;20618;-56
2024/01/29 04:42:08;;;;;;;11.60;6.90;;;;;;;3.26;74.09;102403.88;5071144;28;20607;-57
2024/01/29 04:44:36;;;;;;;10.27;7.57;;;;;;;3.25;73.74;102407.22;5070850;28;20236;-56
2024/01/29 04:47:04;;;;;;;10.33;6.30;;;;;;;3.22;73.88;102399.41;5069057;28;20209;-56
2024/01/29 04:49:32;;;;;;;10.53;7.00;;;;;;;3.20;74.24;102403.50;5070505;28;20279;-57
2024/01/29 04:52:00;;;;;;;12.87;6.87;;;;;;;3.18;74.36;102402.56;5070579;28;20285;-55
2024/01/29 04:54:28;;;;;;;10.37;7.07;;;;;;;3.17;74.65;102400.81;5065141;28;20330;-56
2024/01/29 04:56:58;;;;;;;10.67;7.60;;;;;;;3.19;74.44;102409.41;5066872;28;20213;-56
2024/01/29 04:59:30;;;;;;;11.20;7.33;;;;;;;3.20;74.16;102411.16;5068624;28;20211;-56
2024/01/29 05:01:58;;;;;;;12.43;7.23;;;;;;;3.24;74.80;102413.13;5068430;28;20550;-52
2024/01/29 05:04:26;;;;;;;10.20;7.57;;;;;;;3.25;74.28;102414.84;5070384;28;20216;-55
2024/01/29 05:06:54;;;;;;;9.37;7.00;;;;;;;3.26;74.10;102419.16;5070266;28;20216;-55
2024/01/29 05:09:23;;;;;;;10.20;7.73;;;;;;;3.22;74.28;102403.63;5070313;28;20205;-55
2024/01/29 05:11:51;;;;;;;11.90;8.23;;;;;;;3.28;74.36;102409.06;5069612;28;20636;-56
2024/01/29 05:14:19;;;;;;;10.67;7.57;;;;;;;3.27;74.60;102402.19;5065154;28;20201;-55
2024/01/29 05:16:48;;;;;;;10.63;7.53;;;;;;;3.26;73.75;102411.50;5068296;28;20201;-54
2024/01/29 05:19:16;;;;;;;11.23;7.40;;;;;;;3.24;74.39;102402.91;5068788;28;20574;-56
2024/01/29 05:21:44;;;;;;;10.23;7.13;;;;;;;3.20;73.90;102411.16;5069865;28;20297;-54
2024/01/29 05:24:14;;;;;;;10.63;6.97;;;;;;;3.18;74.63;102422.94;5070493;28;20671;-57
2024/01/29 05:26:42;;;;;;;9.13;7.17;;;;;;;3.14;74.55;102423.56;5063842;28;20671;-57
2024/01/29 05:29:10;;;;;;;10.80;7.13;;;;;;;3.13;74.57;102425.25;5066529;28;20206;-58
2024/01/29 05:31:38;;;;;;;9.07;6.57;;;;;;;3.12;73.97;102420.03;5058807;28;20675;-54
2024/01/29 05:34:08;;;;;;;8.70;6.50;;;;;;;3.09;73.69;102424.97;5067625;28;20209;-55
2024/01/29 05:36:36;;;;;;;8.57;6.37;;;;;;;3.06;73.84;102418.03;5067508;28;20212;-54
2024/01/29 05:39:04;;;;;;;9.77;7.43;;;;;;;3.06;74.62;102412.06;5069548;28;20288;-56
2024/01/29 05:41:32;;;;;;;8.63;6.90;;;;;;;3.04;74.00;102413.63;5070267;28;20849;-56
2024/01/29 05:44:00;;;;;;;9.90;7.00;;;;;;;3.03;74.29;102417.00;5070297;28;20632;-55
2024/01/29 05:46:28;;;;;;;10.20;6.57;;;;;;;2.98;73.90;102420.91;5069871;28;20731;-58
2024/01/29 05:48:56;;;;;;;9.30;7.03;;;;;;;2.95;74.27;102421.66;5070492;28;20675;-55
2024/01/29 05:51:25;;;;;;;11.57;7.17;;;;;;;2.91;74.51;102419.72;5067359;28;20578;-56
2024/01/29 05:53:53;;;;;;;11.27;7.37;;;;;;;2.90;74.18;102421.34;5061849;28;20208;-57
2024/01/29 05:56:21;;;;;;;10.77;7.33;;;;;;;2.90;74.16;102416.25;5070069;28;20304;-55
2024/01/29 05:58:49;;;;;;;12.17;7.40;;;;;;;2.92;74.62;102418.03;5065957;28;20251;-57
2024/01/29 06:01:17;;;;;;;9.03;6.53;;;;;;;2.90;74.98;102405.19;5067776;28;20701;-54
2024/01/29 06:03:45;;;;;;;11.60;8.00;;;;;;;2.93;75.23;102412.16;5071060;28;20248;-53
2024/01/29 06:06:13;;;;;;;10.87;8.40;;;;;;;2.95;75.29;102408.91;5071379;28;20225;-55
2024/01/29 06:08:42;;;;;;;11.67;8.63;;;;;;;2.96;75.05;102407.25;5073321;28;20275;-55
2024/01/29 06:11:10;;;;;;;14.73;8.40;;;;;;;2.93;74.09;102410.47;5069704;28;20616;-57
2024/01/29 06:13:39;;;;;;;11.60;8.13;;;;;;;2.90;74.77;102412.84;5072562;28;20208;-56
2024/01/29 06:16:07;;;;;;;11.97;8.30;;;;;;;2.89;74.35;102416.19;5066621;28;20205;-53
2024/01/29 06:18:36;;;;;;;10.23;7.50;;;;;;;2.86;74.91;102411.78;5070283;28;20212;-54
2024/01/29 06:21:04;;;;;;;10.90;7.40;;;;;;;2.86;75.12;102408.38;5073279;28;20676;-55
2024/01/29 06:23:32;;;;;;;11.43;7.80;;;;;;;2.85;75.30;102420.22;5072879;28;20288;-54
2024/01/29 06:26:03;;;;;;;12.30;7.80;;;;;;;2.86;74.28;102427.06;5063023;28;20218;-57
2024/01/29 06:28:31;;;;;;;12.63;8.20;;;;;;;2.85;75.23;102422.75;5069669;28;20255;-55
2024/01/29 06:30:59;;;;;;;14.47;9.33;;;;;;;2.86;74.51;102424.50;5067059;28;20201;-56
2024/01/29 06:33:27;;;;;;;12.33;8.73;;;;;;;2.82;74.72;102426.81;5062176;28;20621;-57
2024/01/29 06:35:59;;;;;;;11.57;8.23;;;;;;;2.82;75.66;102432.78;5066918;28;20318;-54
2024/01/29 06:38:27;;;;;;;11.47;8.97;;;;;;;2.82;75.48;102437.84;5060567;28;20312;-55
2024/01/29 06:40:55;;;;;;;11.57;7.90;;;;;;;2.82;75.55;102430.22;5065381;28;20209;-53
2024/01/29 06:43:24;;;;;;;12.23;8.60;;;;;;;2.84;75.75;102420.16;5070839;28;20207;-53
2024/01/29 06:45:53;;;;;;;8.17;6.33;;;;;;;2.87;74.97;102430.47;5072224;28;20244;-56
2024/01/29 06:48:21;;;;;;;10.17;7.30;;;;;;;2.81;74.51;102425.06;5070134;28;20675;-56
2024/01/29 06:50:49;;;;;;;10.50;8.10;;;;;;;2.76;74.81;102428.97;5055201;28;20678;-56
2024/01/29 06:53:17;;;;;;;13.63;8.07;;;;;;;2.73;74.50;102432.25;5072527;28;20259;-58
2024/01/29 06:55:45;;;;;;;12.60;9.10;;;;;;;2.73;75.22;102437.34;5060839;28;20201;-56
2024/01/29 06:58:13;;;;;;;13.43;9.47;;;;;;;2.79;75.76;102424.06;5065740;28;20205;-55
2024/01/29 07:00:42;;;;;;;12.00;8.03;;;;;;;2.87;76.29;102426.28;5070653;28;20209;-59
2024/01/29 07:03:10;;;;;;;10.80;8.33;;;;;;;2.94;75.61;102419.00;5071163;28;20209;-56
2024/01/29 07:05:38;;;;;;;9.77;7.30;;;;;;;2.96;75.08;102413.19;5070465;28;20214;-58
2024/01/29 07:08:07;;;;;;;11.87;8.20;;;;;;;2.94;74.89;102416.44;5061836;28;20300;-56
2024/01/29 07:10:34;;;;;;;11.10;7.80;;;;;;;2.93;74.79;102417.25;5065283;28;20619;-55
2024/01/29 07:13:03;;;;;;;10.37;7.60;;;;;;;2.90;74.95;102408.63;5058952;28;20202;-56
2024/01/29 07:15:31;;;;;;;11.90;7.70;;;;;;;2.92;74.67;102403.63;5073230;28;20204;-58
2024/01/29 07:18:00;;;;;;;10.90;7.20;;;;;;;2.93;74.42;102415.56;5067678;28;20210;-58
2024/01/29 07:20:31;;;;;;;9.23;7.20;;;;;;;2.94;74.49;102412.22;5070211;28;20292;-60
2024/01/29 07:22:59;;;;;;;11.17;7.43;;;;;;;2.94;74.75;102419.88;5071412;28;20251;-60
2024/01/29 07:25:27;;;;;;;12.23;8.20;;;;;;;2.96;74.80;102414.88;5066902;28;20213;-59
2024/01/29 07:27:59;;;;;;;11.47;7.80;;;;;;;2.97;75.06;102412.41;5052587;28;20296;-51
2024/01/29 07:30:27;;;;;;;15.20;8.20;;;;;;;3.04;74.52;102406.88;5064057;28;20205;-60
2024/01/29 07:32:55;;;;;;;11.30;7.53;;;;;;;3.10;74.76;102408.91;5071998;28;20197;-58
2024/01/29 07:35:24;;;;;;;9.73;6.73;;;;;;;3.13;74.14;102416.72;5065545;28;20288;-54
2024/01/29 07:37:53;;;;;;;8.87;6.57;;;;;;;3.11;74.01;102416.63;5068749;28;20225;-56
2024/01/29 07:40:22;;;;;;;8.50;6.20;;;;;;;3.09;73.97;102428.41;5071832;28;20343;-53
2024/01/29 07:42:50;;;;;;;9.40;6.43;;;;;;;3.10;73.69;102426.75;5069278;28;20205;-54
2024/01/29 07:45:18;;;;;;;6.13;4.60;;;;;;;3.11;73.14;102429.34;5064597;28;20201;-51
2024/01/29 07:47:46;;;;;;;8.27;4.67;;;;;;;3.12;72.91;102422.59;5071807;28;20270;-51
2024/01/29 07:50:14;;;;;;;5.20;4.03;;;;;;;3.15;73.77;102428.75;5060868;28;20233;-56
2024/01/29 07:52:44;;;;;;;7.03;4.93;;;;;;;3.21;73.09;102418.03;5060326;28;20198;-53
2024/01/29 07:55:12;;;;;;;6.10;4.90;;;;;;;3.22;72.90;102424.00;5067621;28;20201;-54
2024/01/29 07:57:40;;;;;;;6.50;4.73;;;;;;;3.26;73.14;102423.38;5071726;28;20311;-56
2024/01/29 08:00:09;;;;;;;5.23;4.10;;;;;;;3.29;72.90;102428.66;5063739;28;20209;-54
2024/01/29 08:02:37;;;;;;;6.53;4.43;;;;;;;3.34;72.92;102435.75;5063444;28;20635;-54
2024/01/29 08:05:06;;;;;;;6.43;4.07;;;;;;;3.38;72.74;102432.56;5071209;28;20202;-55
2024/01/29 08:07:34;;;;;;;5.73;4.37;;;;;;;3.46;72.69;102437.22;5066763;28;20640;-53
2024/01/29 08:10:04;;;;;;;6.23;3.97;;;;;;;3.50;72.51;102431.50;5067402;28;20664;-56
2024/01/29 08:12:32;;;;;;;6.53;4.30;;;;;;;3.59;72.29;102437.13;5068752;28;20609;-54
2024/01/29 08:15:00;;;;;;;5.90;4.07;;;;;;;3.58;71.85;102430.28;5066836;28;20232;-55
2024/01/29 08:17:28;;;;;;;8.50;4.70;;;;;;;3.52;71.92;102435.03;5065855;28;20220;-52
2024/01/29 08:19:57;;;;;;;5.23;4.30;;;;;;;3.44;72.24;102429.50;5066303;28;20295;-55
2024/01/29 08:22:25;;;;;;;6.03;4.10;;;;;;;3.37;72.15;102422.31;5065205;28;20205;-52
2024/01/29 08:24:53;;;;;;;6.17;4.63;;;;;;;3.33;72.68;102421.25;5067901;28;20232;-52
2024/01/29 08:27:22;;;;;;;5.57;4.07;;;;;;;3.29;72.53;102426.97;5069990;28;20563;-53
2024/01/29 08:29:50;;;;;;;5.07;4.30;;;;;;;3.28;73.00;102422.69;5065749;28;20206;-59
2024/01/29 08:32:19;;;;;;;6.40;4.10;;;;;;;3.29;73.21;102419.34;5067544;28;20251;-58
2024/01/29 08:34:47;;;;;;;7.23;4.50;;;;;;;3.29;73.30;102416.78;5070405;28;20201;-59
2024/01/29 08:37:15;;;;;;;10.27;4.40;;;;;;;3.30;73.04;102417.66;5068512;28;20220;-56
2024/01/29 08:39:44;;;;;;;6.20;4.30;;;;;;;3.31;73.76;102420.28;5071085;28;20263;-56
2024/01/29 08:42:15;;;;;;;4.83;4.20;;;;;;;3.32;73.03;102424.59;5069499;28;20243;-57
2024/01/29 08:44:46;;;;;;;5.93;4.33;;;;;;;3.33;73.78;102423.81;5069890;28;20232;-57
2024/01/29 08:47:13;;;;;;;6.70;4.53;;;;;;;3.35;72.91;102424.78;5063363;28;20245;-58
2024/01/29 08:49:41;;;;;;;4.50;3.80;;;;;;;3.38;73.59;102424.06;5067342;28;20617;-57
2024/01/29 08:52:09;;;;;;;7.13;4.70;;;;;;;3.42;72.57;102425.97;5065465;28;20206;-59
2024/01/29 08:54:38;;;;;;;7.20;5.20;;;;;;;3.43;72.67;102424.34;5069777;28;20292;-57
2024/01/29 08:57:06;;;;;;;6.20;4.57;;;;;;;3.43;73.03;102430.31;5068128;28;20209;-58
2024/01/29 08:59:34;;;;;;;7.50;4.77;;;;;;;3.45;72.71;102418.50;5065394;28;20209;-57
2024/01/29 09:02:03;;;;;;;6.03;4.77;;;;;;;3.49;73.24;102415.34;5059867;28;20205;-57
2024/01/29 09:04:31;;;;;;;6.33;4.77;;;;;;;3.55;72.70;102432.66;5068414;28;20208;-57
2024/01/29 09:06:59;;;;;;;7.37;4.53;;;;;;;3.57;72.53;102428.50;5070235;28;20266;-56
2024/01/29 09:09:27;;;;;;;5.67;4.60;;;;;;;3.59;72.99;102432.03;5069470;28;20232;-58
2024/01/29 09:11:55;;;;;;;7.63;5.17;;;;;;;3.62;72.62;102432.19;5061883;28;20271;-58
2024/01/29 09:14:24;;;;;;;5.87;4.27;;;;;;;3.62;72.04;102429.66;5068767;28;20649;-58
2024/01/29 09:16:52;;;;;;;4.50;3.93;;;;;;;3.64;72.08;102430.59;5065196;28;20225;-56
2024/01/29 09:19:23;;;;;;;5.63;4.07;;;;;;;3.64;71.95;102430.59;5059010;28;20224;-59
2024/01/29 09:21:51;;;;;;;5.00;4.20;;;;;;;3.67;71.67;102424.78;5066935;28;20657;-58
2024/01/29 09:24:19;;;;;;;5.27;4.50;;;;;;;3.64;71.76;102430.59;5064930;28;20205;-58
2024/01/29 09:26:47;;;;;;;5.20;4.43;;;;;;;3.64;71.91;102433.16;5059220;28;20684;-58
2024/01/29 09:29:15;;;;;;;6.33;4.87;;;;;;;3.64;72.24;102433.16;5063512;28;20220;-60
2024/01/29 09:31:43;;;;;;;6.40;4.83;;;;;;;3.68;71.67;102427.41;5068345;28;20252;-60
2024/01/29 09:34:11;;;;;;;6.67;4.67;;;;;;;3.74;72.17;102432.84;5071727;28;20193;-58
2024/01/29 09:36:41;;;;;;;6.60;5.00;;;;;;;3.79;71.99;102430.56;5062256;28;20310;-59
2024/01/29 09:39:09;;;;;;;7.07;4.73;;;;;;;3.81;71.66;102429.84;5066139;28;20228;-58
2024/01/29 09:41:38;;;;;;;5.90;4.70;;;;;;;3.84;71.72;102430.03;5067034;28;20673;-61
2024/01/29 09:44:08;;;;;;;7.03;4.87;;;;;;;3.84;71.56;102424.91;5063269;28;20259;-58
2024/01/29 09:46:38;;;;;;;6.67;4.87;;;;;;;3.87;71.72;102426.78;5064026;28;20738;-57
2024/01/29 09:49:06;;;;;;;7.30;5.10;;;;;;;3.91;71.32;102420.16;5068722;28;20287;-59
2024/01/29 09:51:35;;;;;;;10.27;5.37;;;;;;;3.94;71.25;102415.19;5065149;28;20249;-58
2024/01/29 09:54:05;;;;;;;9.10;5.80;;;;;;;3.96;71.22;102418.72;5064263;28;20206;-59
2024/01/29 09:56:34;;;;;;;7.97;5.27;;;;;;;4.01;71.56;102417.28;5073160;28;20288;-58
2024/01/29 09:59:02;;;;;;;5.67;5.00;;;;;;;4.04;70.88;102414.91;5073327;28;20947;-59
2024/01/29 10:01:30;;;;;;;6.17;4.87;;;;;;;4.05;70.65;102414.09;5068164;28;20723;-59
2024/01/29 10:03:58;;;;;;;7.00;5.10;;;;;;;4.04;69.96;102414.91;5069948;28;20204;-57
2024/01/29 10:06:26;;;;;;;7.07;5.40;;;;;;;4.02;70.70;102419.06;5062483;28;20242;-58
2024/01/29 10:08:58;;;;;;;5.90;4.90;;;;;;;4.00;70.93;102406.22;5071271;28;20324;-57
2024/01/29 10:11:27;;;;;;;7.57;5.73;;;;;;;4.02;71.02;102399.53;5063848;28;20207;-59
2024/01/29 10:13:59;;;;;;;7.47;5.80;;;;;;;4.05;70.53;102409.00;5060980;28;20677;-57
2024/01/29 10:16:27;;;;;;;8.33;5.60;;;;;;;4.09;70.62;102403.28;5064262;28;20252;-58
2024/01/29 10:18:58;;;;;;;7.30;5.10;;;;;;;4.13;70.40;102402.66;5063829;28;20197;-55
2024/01/29 10:21:27;;;;;;;9.37;5.50;;;;;;;4.16;70.84;102396.81;5069584;28;20233;-57
2024/01/29 10:23:56;;;;;;;7.97;5.70;;;;;;;4.19;70.56;102390.19;5072050;28;20201;-59
2024/01/29 10:26:25;;;;;;;8.00;6.07;;;;;;;4.23;70.30;102379.34;5059789;28;20630;-56
2024/01/29 10:29:02;;;;;;;11.00;6.17;;;;;;;4.28;69.99;102380.47;5063840;28;20225;-59
2024/01/29 10:31:30;;;;;;;8.13;5.80;;;;;;;4.31;70.05;102383.19;5069102;28;20296;-59
2024/01/29 10:33:58;;;;;;;9.07;6.53;;;;;;;4.33;70.16;102376.47;5068955;28;20202;-56
2024/01/29 10:36:27;;;;;;;8.27;5.90;;;;;;;4.36;70.04;102381.75;5068965;28;20232;-57
2024/01/29 10:39:00;;;;;;;7.33;5.60;;;;;;;4.36;69.65;102371.53;5067618;28;20281;-57
2024/01/29 10:41:33;;;;;;;7.57;5.53;;;;;;;4.40;69.92;102379.34;5064457;28;20198;-61
2024/01/29 10:44:04;;;;;;;11.13;6.57;;;;;;;4.42;69.79;102372.63;5072488;28;20205;-59
2024/01/29 10:46:37;;;;;;;8.03;5.80;;;;;;;4.43;69.69;102371.84;5069992;28;20212;-59
2024/01/29 10:49:05;;;;;;;12.77;6.37;;;;;;;4.42;69.48;102377.72;5069252;28;20698;-59
2024/01/29 10:51:35;;;;;;;7.77;5.17;;;;;;;4.41;69.32;102366.66;5066302;28;20222;-59
2024/01/29 10:54:03;;;;;;;8.30;6.13;;;;;;;4.43;69.29;102366.75;5060218;28;20657;-60
2024/01/29 10:56:31;;;;;;;9.47;6.03;;;;;;;4.46;69.20;102379.66;5058413;28;20205;-59
2024/01/29 10:59:02;;;;;;;8.40;6.00;;;;;;;4.48;69.13;102370.41;5069461;28;20209;-59
2024/01/29 11:01:32;;;;;;;7.57;5.47;;;;;;;4.50;68.52;102366.25;5067525;28;20210;-58
2024/01/29 11:04:00;;;;;;;9.00;5.73;;;;;;;4.52;69.24;102360.41;5072110;28;20260;-59
2024/01/29 11:06:36;;;;;;;6.83;5.30;;;;;;;4.56;69.14;102364.88;5068230;28;20236;-58
2024/01/29 11:09:09;;;;;;;7.47;5.47;;;;;;;4.63;69.07;102368.59;5058860;28;20290;-58
2024/01/29 11:11:39;;;;;;;7.13;5.40;;;;;;;4.69;69.03;102365.50;5067638;28;20212;-55
2024/01/29 11:14:10;;;;;;;9.57;5.93;;;;;;;4.72;68.87;102371.63;5072862;28;20212;-57
2024/01/29 11:16:39;;;;;;;6.40;4.73;;;;;;;4.75;68.40;102365.78;5069317;28;20201;-56
2024/01/29 11:19:07;;;;;;;7.80;5.53;;;;;;;4.77;67.75;102359.97;5062048;28;20280;-57
2024/01/29 11:21:35;;;;;;;7.20;5.23;;;;;;;4.77;67.76;102353.97;5067401;28;20560;-56
2024/01/29 11:24:03;;;;;;;8.63;6.00;;;;;;;4.78;68.02;102351.47;5069389;28;20215;-57
2024/01/29 11:26:31;;;;;;;7.97;5.70;;;;;;;4.82;68.04;102355.06;5058918;28;20214;-57
2024/01/29 11:29:03;;;;;;;9.30;6.07;;;;;;;4.85;68.01;102348.44;5061701;28;20216;-58
2024/01/29 11:31:41;;;;;;;7.87;5.30;;;;;;;4.89;67.87;102343.47;5064437;28;20267;-59
2024/01/29 11:34:11;;;;;;;11.67;5.57;;;;;;;4.94;67.74;102342.03;5064895;28;20633;-57
2024/01/29 11:36:39;;;;;;;8.03;5.43;;;;;;;4.97;67.91;102340.50;5063894;28;20670;-56